Pringle, SD (57773)

3:12 AM MST on February 11, 2016 (GMT -0700)
RAWS | | Change Station
CLOSE
Current Station
Personal Weather Station
Location: Pringle, SD
Elevation: 4110 ft
Nearby Weather Stations

Elev 4110 ft 43.56 °N, 103.49 °W | Updated 59 minutes ago

Clear
Clear
30.0 °F
Feels Like 26 °F
N
4.0
Wind Variable Wind from SSW
Gusts 9.0 mph

Today
High -- | Low -- °F
--% Chance of Precip.
Yesterday
High -- | Low -- °F
Precip. -- in
Pressure 29.97 in
Visibility 10.0 miles
Clouds Clear
Windchill 26 °F
Dew Point 24.0 °F
Humidity 78%
Rainfall in
Snow Depth Not available.
6:59 AM 5:18 PM
Waxing Crescent, 11% visible
METAR KCUT 110953Z AUTO 22005KT 10SM CLR 01/M06 A3002 RMK AO2 SLP148 T00111061
Pressure 29.97 in
Visibility 10.0 miles
Clouds Clear
Windchill 26 °F
Dew Point 24.0 °F
Humidity 78%
Rainfall in
Snow Depth Not available.
6:59 AM 5:18 PM
Waxing Crescent, 11% visible
METAR KCUT 110953Z AUTO 22005KT 10SM CLR 01/M06 A3002 RMK AO2 SLP148 T00111061

10-Day Weather Forecast

Almanac

Astronomy

Feb. 11, 2016 Rise Set
Actual Time
Civil Twilight
Nautical Twilight
Astronomical Twilight
Moon
Length of Visible Light
Length of Day
Tomorrow will be .
, % of the Moon is Illuminated

Today's Extremes

State Highs State Lows

Community

WunderPhotos

Upload Photos

1,892,030 photos uploaded!

WunderBlog® & News

Nearby

Air Quality

  Air Quality AQ Index Pollutant
Not available.

Snow Depth

Station Depth Elevation

Earthquake Activity

City Distance Mag. Time & Date
Minimum magnitude displayed is 2.5.

Coastal Water Temperatures

Place Temperature

Stations

Nearby Weather Stations

Station Location Temp. Windchill Dew Point Humidity Wind Precip. Elev Updated Type
                   

Watches & Warnings

There are currently no watches in effect.